Terminal Aerodrome Forecast
Issued by NWS

Home | Current Version | Previous Version | Text Only | Print | Product List | Glossary On
Versions: 1 2 3 4 5 6 7 8 9 10 11 12
000
FTUS43 KOAX 232320
TAFBFF
TAF
KBFF 232320Z 2400/2424 32025G40KT P6SM SCT090
     FM240100 31014G24KT P6SM SCT090
     FM241500 32020G30KT P6SM BKN070=

USA.gov is the U.S. government's official web portal to all federal, state and local government web resources and services.